createdAt,value
2022-10-01T00:01:16.550Z,100079.22
2022-10-01T00:03:43.615Z,100083.13
2022-10-01T00:06:18.036Z,100081.53
2022-10-01T00:08:49.059Z,100091.56
2022-10-01T00:11:21.636Z,100077.94
2022-10-01T00:13:49.623Z,100074.41
2022-10-01T00:16:27.874Z,100075.78
2022-10-01T00:18:55.701Z,100083.16
2022-10-01T00:21:28.396Z,100083.41
2022-10-01T00:23:56.746Z,100079.59
2022-10-01T00:26:27.341Z,100081.16
2022-10-01T00:28:57.395Z,100077.69
2022-10-01T00:31:25.720Z,100077.66
2022-10-01T00:33:54.089Z,100072.44
2022-10-01T00:36:21.838Z,100068.88
2022-10-01T00:38:48.535Z,100064.16
2022-10-01T00:41:16.544Z,100074.97
2022-10-01T00:43:47.061Z,100059.44
2022-10-01T00:46:24.388Z,100066.06
2022-10-01T00:49:15.210Z,100065.47
2022-10-01T00:51:47.081Z,100071.25
2022-10-01T00:54:18.977Z,100073.22
2022-10-01T00:56:47.201Z,100065.22
2022-10-01T00:59:16.362Z,100070.19
2022-10-01T01:01:43.372Z,100074.72
2022-10-01T01:04:16.703Z,100062.66
2022-10-01T01:06:57.913Z,100077.69
2022-10-01T01:09:31.296Z,100045.91
2022-10-01T01:12:42.691Z,100077.09
2022-10-01T01:15:15.208Z,100071.25
2022-10-01T01:18:06.184Z,100075.44
2022-10-01T01:20:43.233Z,100062.88
2022-10-01T01:23:16.263Z,100063.03
2022-10-01T01:26:02.946Z,100060.09
2022-10-01T01:28:44.636Z,100072.38
2022-10-01T01:31:18.337Z,100060.69
2022-10-01T01:33:48.199Z,100066.91
2022-10-01T01:36:19.408Z,100065.31
2022-10-01T01:38:57.751Z,100062.59
2022-10-01T01:41:29.334Z,100074.78
2022-10-01T01:44:01.092Z,100064.56
2022-10-01T01:46:33.298Z,100058.16
2022-10-01T01:49:03.760Z,100053.50
2022-10-01T01:51:33.547Z,100058.53
2022-10-01T01:54:00.519Z,100057.88
2022-10-01T01:56:27.621Z,100063.81
2022-10-01T01:58:54.329Z,100067.25
2022-10-01T02:01:39.645Z,100068.22
2022-10-01T02:04:33.610Z,100069.97
2022-10-01T02:07:21.971Z,100064.28
2022-10-01T02:10:00.379Z,100062.72
2022-10-01T02:12:56.240Z,100067.91
2022-10-01T02:15:37.119Z,100074.41
2022-10-01T02:18:27.763Z,100070.78
2022-10-01T02:21:17.455Z,100061.81
2022-10-01T02:23:59.040Z,100078.06
2022-10-01T02:26:28.243Z,100086.88
2022-10-01T02:28:59.646Z,100098.69
2022-10-01T02:31:29.560Z,100115.84
2022-10-01T02:33:59.440Z,100107.00
2022-10-01T02:36:29.851Z,100102.31
2022-10-01T02:39:00.610Z,100106.31
2022-10-01T02:41:32.918Z,100100.09
2022-10-01T02:44:05.191Z,100086.94
2022-10-01T02:47:07.995Z,100097.22
2022-10-01T02:49:36.538Z,100098.63
2022-10-01T02:52:21.741Z,100095.41
2022-10-01T02:55:04.608Z,100100.88
2022-10-01T02:57:32.495Z,100077.78
2022-10-01T03:00:15.388Z,100092.25
2022-10-01T03:02:42.578Z,100097.94
2022-10-01T03:05:09.514Z,100104.47
2022-10-01T03:07:36.467Z,100088.47
2022-10-01T03:10:05.263Z,100102.44
2022-10-01T03:12:32.095Z,100111.00
2022-10-01T03:14:58.806Z,100116.84
2022-10-01T03:17:25.765Z,100115.53
2022-10-01T03:19:52.562Z,100106.63
2022-10-01T03:22:22.766Z,100130.50
2022-10-01T03:24:53.734Z,100123.09
2022-10-01T03:27:21.436Z,100126.56
2022-10-01T03:29:48.519Z,100126.75
2022-10-01T03:32:15.846Z,100127.94
2022-10-01T03:34:42.912Z,100130.47
2022-10-01T03:37:10.293Z,100133.78
2022-10-01T03:39:37.241Z,100137.06
2022-10-01T03:42:06.039Z,100145.84
2022-10-01T03:44:33.795Z,100129.06
2022-10-01T03:47:00.802Z,100115.16
2022-10-01T03:49:28.351Z,100119.03
2022-10-01T03:51:55.463Z,100101.81
2022-10-01T03:54:22.691Z,100115.00
2022-10-01T03:56:49.430Z,100113.03
2022-10-01T03:59:16.202Z,100112.31
2022-10-01T04:01:43.139Z,100117.81
2022-10-01T04:04:10.093Z,100121.81
2022-10-01T04:06:36.887Z,100132.94
2022-10-01T04:09:03.927Z,100118.81
2022-10-01T04:11:30.835Z,100135.19
2022-10-01T04:13:58.046Z,100126.75
2022-10-01T04:16:25.289Z,100130.75
2022-10-01T04:18:52.065Z,100135.16
2022-10-01T04:21:19.265Z,100138.91
2022-10-01T04:23:45.964Z,100139.16
2022-10-01T04:26:12.702Z,100141.03
2022-10-01T04:28:39.334Z,100127.03
2022-10-01T04:31:24.545Z,100137.59
2022-10-01T04:33:56.401Z,100134.84
2022-10-01T04:36:25.170Z,100143.06
2022-10-01T04:39:00.934Z,100130.47
2022-10-01T04:41:31.007Z,100132.13
2022-10-01T04:44:01.610Z,100151.84
2022-10-01T04:46:30.191Z,100151.38
2022-10-01T04:48:57.567Z,100155.59
2022-10-01T04:51:24.695Z,100138.75
2022-10-01T04:53:51.380Z,100161.41
2022-10-01T04:56:18.189Z,100171.25
2022-10-01T04:58:44.857Z,100167.50
2022-10-01T05:01:12.764Z,100148.91
2022-10-01T05:03:39.943Z,100157.78
2022-10-01T05:06:06.837Z,100166.16
2022-10-01T05:08:33.503Z,100171.53
2022-10-01T05:11:00.740Z,100163.94
2022-10-01T05:13:30.363Z,100172.22
2022-10-01T05:15:58.119Z,100197.31
2022-10-01T05:18:24.993Z,100194.59
2022-10-01T05:20:51.902Z,100199.03
2022-10-01T05:23:18.559Z,100196.44
2022-10-01T05:25:47.028Z,100190.72
2022-10-01T05:28:17.243Z,100190.47
2022-10-01T05:30:46.738Z,100193.63
2022-10-01T05:33:13.524Z,100181.78
2022-10-01T05:35:41.384Z,100204.88
2022-10-01T05:38:08.069Z,100193.31
2022-10-01T05:40:34.743Z,100192.53
2022-10-01T05:43:03.160Z,100193.91
2022-10-01T05:45:31.371Z,100213.75
2022-10-01T05:48:03.192Z,100204.69
2022-10-01T05:50:32.030Z,100211.13
2022-10-01T05:53:00.173Z,100216.06
2022-10-01T05:55:31.870Z,100209.66
2022-10-01T05:58:01.406Z,100077.84
2022-10-01T06:00:29.263Z,100210.91
2022-10-01T06:02:58.185Z,100205.94
2022-10-01T06:05:25.702Z,100199.44
2022-10-01T06:07:53.574Z,100211.53
2022-10-01T06:10:21.727Z,100204.16
2022-10-01T06:12:48.926Z,100194.97
2022-10-01T06:15:16.808Z,100196.97
2022-10-01T06:17:45.441Z,100199.53
2022-10-01T06:20:14.423Z,100213.00
2022-10-01T06:22:43.126Z,100196.22
2022-10-01T06:25:15.336Z,100190.88
2022-10-01T06:27:42.430Z,100192.72
2022-10-01T06:30:09.775Z,100188.63
2022-10-01T06:32:36.933Z,100193.88
2022-10-01T06:35:04.382Z,100179.38
2022-10-01T06:37:31.067Z,100193.22
2022-10-01T06:39:57.874Z,100176.16
2022-10-01T06:42:24.643Z,100186.50
2022-10-01T06:44:51.331Z,100179.50
2022-10-01T06:47:18.042Z,100186.72
2022-10-01T06:49:47.613Z,100174.56
2022-10-01T06:52:33.519Z,100166.72
2022-10-01T06:55:01.477Z,100169.47
2022-10-01T06:57:29.275Z,100173.44
2022-10-01T06:59:56.106Z,100171.50
2022-10-01T07:02:28.939Z,100180.16
2022-10-01T07:04:59.258Z,100180.44
2022-10-01T07:07:35.363Z,100178.56
2022-10-01T07:10:03.058Z,100188.41
2022-10-01T07:12:29.726Z,100189.41
2022-10-01T07:14:56.540Z,100186.16
2022-10-01T07:17:23.345Z,100183.25
2022-10-01T07:19:50.004Z,100159.69
2022-10-01T07:22:18.179Z,100170.34
2022-10-01T07:24:47.844Z,100193.91
2022-10-01T07:27:14.852Z,100194.94
2022-10-01T07:29:44.544Z,100185.44
2022-10-01T07:32:11.513Z,100179.94
2022-10-01T07:34:42.843Z,100177.47
2022-10-01T07:37:09.873Z,100179.13
2022-10-01T07:39:37.981Z,100190.53
2022-10-01T07:42:04.947Z,100154.81
2022-10-01T07:44:31.666Z,100171.75
2022-10-01T07:46:58.375Z,100159.56
2022-10-01T07:49:25.634Z,100179.34
2022-10-01T07:51:54.490Z,100167.38
2022-10-01T07:54:22.589Z,100169.72
2022-10-01T07:56:52.063Z,100152.25
2022-10-01T07:59:19.217Z,100143.06
2022-10-01T08:01:54.823Z,100133.22
2022-10-01T08:04:40.570Z,100140.19
2022-10-01T08:07:08.774Z,100119.34
2022-10-01T08:09:35.703Z,100132.00
2022-10-01T08:12:03.089Z,100142.28
2022-10-01T08:14:30.675Z,100138.50
2022-10-01T08:16:57.990Z,100156.97
2022-10-01T08:19:25.592Z,100146.19
2022-10-01T08:21:52.971Z,100162.63
2022-10-01T08:24:20.294Z,100165.09
2022-10-01T08:26:53.256Z,100160.19
2022-10-01T08:29:20.489Z,100169.41
2022-10-01T08:31:47.602Z,100163.88
2022-10-01T08:34:14.775Z,100159.25
2022-10-01T08:36:41.509Z,100149.75
2022-10-01T08:39:08.269Z,100143.47
2022-10-01T08:41:56.111Z,100145.38
2022-10-01T08:44:44.309Z,100155.03
2022-10-01T08:47:17.135Z,100144.66
2022-10-01T08:49:54.836Z,100164.13
2022-10-01T08:52:33.883Z,100161.78
2022-10-01T08:55:14.569Z,100161.09
2022-10-01T08:57:51.685Z,100161.03
2022-10-01T09:00:19.343Z,100160.25
2022-10-01T09:02:47.003Z,100160.44
2022-10-01T09:05:25.501Z,100168.88
2022-10-01T09:08:15.339Z,100159.81
2022-10-01T09:11:00.885Z,100167.41
2022-10-01T09:13:50.118Z,100162.47
2022-10-01T09:16:50.092Z,100161.16
2022-10-01T09:19:19.745Z,100154.50
2022-10-01T09:21:57.661Z,100148.03
2022-10-01T09:24:38.462Z,100126.47
2022-10-01T09:27:13.910Z,100139.00
2022-10-01T09:29:46.935Z,100139.50
2022-10-01T09:32:19.572Z,100142.16
2022-10-01T09:34:47.438Z,100129.53
2022-10-01T09:37:28.085Z,100103.66
2022-10-01T09:40:03.820Z,100116.91
2022-10-01T09:42:30.702Z,100107.47
2022-10-01T09:44:57.975Z,100087.78
2022-10-01T09:47:28.321Z,100102.06
2022-10-01T09:49:55.578Z,100101.19
2022-10-01T09:52:34.646Z,100095.66
2022-10-01T09:55:16.612Z,100088.41
2022-10-01T09:57:50.663Z,100091.06
2022-10-01T10:00:23.723Z,100079.88
2022-10-01T10:02:52.267Z,100072.81
2022-10-01T10:05:25.607Z,100061.47
2022-10-01T10:07:57.631Z,100058.44
2022-10-01T10:10:37.038Z,100053.16
2022-10-01T10:13:10.196Z,100059.47
2022-10-01T10:15:50.908Z,100045.34
2022-10-01T10:18:27.193Z,100029.09
2022-10-01T10:20:55.123Z,100018.22
2022-10-01T10:23:29.063Z,100011.63
2022-10-01T10:25:56.709Z,100012.25
2022-10-01T10:28:24.912Z,100015.94
2022-10-01T10:30:55.121Z,100008.81
2022-10-01T10:33:26.351Z,100015.19
2022-10-01T10:36:06.491Z,100013.88
2022-10-01T10:38:35.300Z,100015.25
2022-10-01T10:41:04.009Z,100005.78
2022-10-01T10:43:36.828Z,99998.69
2022-10-01T10:46:04.549Z,100001.41
2022-10-01T10:48:36.843Z,100009.03
2022-10-01T10:51:05.763Z,100008.59
2022-10-01T10:53:46.423Z,100020.63
2022-10-01T10:56:23.005Z,100009.22
2022-10-01T10:58:51.801Z,100000.97
2022-10-01T11:01:28.615Z,100000.97
2022-10-01T11:04:01.114Z,99986.31
2022-10-01T11:06:28.424Z,99986.41
2022-10-01T11:09:07.780Z,99981.19
2022-10-01T11:11:34.408Z,99981.72
2022-10-01T11:14:31.713Z,99982.94
2022-10-01T11:17:43.556Z,99998.72
2022-10-01T11:20:20.801Z,99987.94
2022-10-01T11:23:23.093Z,99980.03
2022-10-01T11:26:19.054Z,99973.22
2022-10-01T11:28:57.876Z,99977.13
2022-10-01T11:31:38.380Z,99968.31
2022-10-01T11:34:37.865Z,99975.75
2022-10-01T11:37:24.368Z,99960.06
2022-10-01T11:39:56.720Z,99957.50
2022-10-01T11:42:34.839Z,99885.25
2022-10-01T11:45:09.765Z,99941.19
2022-10-01T11:47:44.378Z,99943.03
2022-10-01T11:50:25.595Z,99938.09
2022-10-01T11:52:59.939Z,99949.38
2022-10-01T11:55:51.595Z,99940.03
2022-10-01T11:58:48.698Z,99943.63
2022-10-01T12:01:24.376Z,99955.50
2022-10-01T12:03:54.035Z,99947.66
2022-10-01T12:06:32.989Z,99948.06
2022-10-01T12:09:20.161Z,99953.25
2022-10-01T12:12:17.348Z,99952.91
2022-10-01T12:15:06.945Z,99965.94
2022-10-01T12:17:52.590Z,99962.94
2022-10-01T12:20:40.936Z,99948.72
2022-10-01T12:23:14.775Z,99962.72
2022-10-01T12:25:59.332Z,99966.53
2022-10-01T12:28:46.763Z,99968.63
2022-10-01T12:31:32.992Z,99961.81
2022-10-01T12:34:15.185Z,99962.00
2022-10-01T12:37:04.422Z,99943.22
2022-10-01T12:39:50.578Z,99931.63
2022-10-01T12:42:31.385Z,99931.00
2022-10-01T12:45:21.963Z,99922.59
2022-10-01T12:47:57.771Z,99927.75
2022-10-01T12:50:57.324Z,99916.41
2022-10-01T12:53:30.281Z,99912.69
2022-10-01T12:56:12.281Z,99902.63
2022-10-01T12:59:07.891Z,99904.88
2022-10-01T13:01:51.903Z,99902.97
2022-10-01T13:04:40.507Z,99901.03
2022-10-01T13:07:27.233Z,99893.94
2022-10-01T13:10:03.007Z,99880.34
2022-10-01T13:13:07.939Z,99874.63
2022-10-01T13:15:38.121Z,99880.47
2022-10-01T13:18:23.327Z,99885.81
2022-10-01T13:21:20.776Z,99874.53
2022-10-01T13:23:58.942Z,99861.66
2022-10-01T13:26:35.085Z,99856.06
2022-10-01T13:29:38.240Z,99851.03
2022-10-01T13:32:26.069Z,99857.03
2022-10-01T13:34:53.292Z,99852.88
2022-10-01T13:37:33.787Z,99829.44
2022-10-01T13:40:01.309Z,99846.72
2022-10-01T13:42:42.204Z,99843.72
2022-10-01T13:45:31.845Z,99846.38
2022-10-01T13:48:07.953Z,99828.94
2022-10-01T13:50:34.998Z,99814.50
2022-10-01T13:53:23.157Z,99790.31
2022-10-01T13:55:50.773Z,99782.09
2022-10-01T13:58:29.694Z,99770.34
2022-10-01T14:01:00.217Z,99767.63
2022-10-01T14:03:53.626Z,99768.19
2022-10-01T14:06:47.322Z,99751.53
2022-10-01T14:09:31.623Z,99758.13
2022-10-01T14:12:26.782Z,99761.41
2022-10-01T14:15:15.754Z,99739.19
2022-10-01T14:17:44.783Z,99734.72
2022-10-01T14:20:24.894Z,99726.50
2022-10-01T14:23:13.213Z,99731.16
2022-10-01T14:26:03.674Z,99709.06
2022-10-01T14:28:48.973Z,99692.00
2022-10-01T14:31:37.454Z,99692.84
2022-10-01T14:34:21.910Z,99682.72
2022-10-01T14:36:50.983Z,99652.13
2022-10-01T14:39:23.854Z,99639.34
2022-10-01T14:41:53.560Z,99638.03
2022-10-01T14:44:29.100Z,99643.03
2022-10-01T14:46:58.425Z,99682.97
2022-10-01T14:49:27.747Z,99696.84
2022-10-01T14:52:20.458Z,99715.53
2022-10-01T14:55:11.948Z,99716.81
2022-10-01T14:57:42.745Z,99706.50
2022-10-01T15:00:21.159Z,99700.09
2022-10-01T15:02:52.263Z,99701.22
2022-10-01T15:05:26.333Z,99704.31
2022-10-01T15:07:53.221Z,99697.69
2022-10-01T15:10:24.058Z,99692.22
2022-10-01T15:12:52.904Z,99698.63
2022-10-01T15:15:20.679Z,99699.09
2022-10-01T15:17:49.138Z,99701.59
2022-10-01T15:20:17.436Z,99690.16
2022-10-01T15:22:47.185Z,99688.38
2022-10-01T15:25:21.936Z,99691.72
2022-10-01T15:27:50.499Z,99661.81
2022-10-01T15:30:18.559Z,99668.75
2022-10-01T15:32:49.113Z,99664.00
2022-10-01T15:35:20.917Z,99675.09
2022-10-01T15:37:51.611Z,99659.72
2022-10-01T15:40:27.096Z,99669.47
2022-10-01T15:43:09.065Z,99672.38
2022-10-01T15:45:36.059Z,99663.53
2022-10-01T15:48:03.008Z,99659.00
2022-10-01T15:50:36.563Z,99657.06
2022-10-01T15:53:15.343Z,99653.38
2022-10-01T15:55:52.558Z,99650.84
2022-10-01T15:58:35.744Z,99647.66
2022-10-01T16:01:09.690Z,99633.31
2022-10-01T16:03:53.840Z,99631.53
2022-10-01T16:06:27.245Z,99623.63
2022-10-01T16:09:11.951Z,99611.41
2022-10-01T16:12:00.538Z,99621.91
2022-10-01T16:14:36.755Z,99622.06
2022-10-01T16:17:18.809Z,99621.28
2022-10-01T16:19:53.628Z,99611.47
2022-10-01T16:22:21.720Z,99616.13
2022-10-01T16:25:01.580Z,99622.81
2022-10-01T16:27:45.998Z,99631.94
2022-10-01T16:30:23.060Z,99635.03
2022-10-01T16:32:49.945Z,99627.03
2022-10-01T16:35:23.206Z,99620.03
2022-10-01T16:37:52.030Z,99620.47
2022-10-01T16:40:20.984Z,99606.38
2022-10-01T16:42:51.942Z,99607.38
2022-10-01T16:45:24.750Z,99618.47
2022-10-01T16:47:53.450Z,99608.22
2022-10-01T16:50:21.882Z,99604.19
2022-10-01T16:52:52.532Z,99610.03
2022-10-01T16:55:24.095Z,99601.50
2022-10-01T16:57:52.938Z,99598.16
2022-10-01T17:00:21.959Z,99602.13
2022-10-01T17:02:48.768Z,99597.56
2022-10-01T17:05:25.575Z,99594.47
2022-10-01T17:07:53.071Z,99599.91
2022-10-01T17:10:22.533Z,99601.94
2022-10-01T17:12:49.984Z,99594.88
2022-10-01T17:15:20.051Z,99599.31
2022-10-01T17:17:47.101Z,99586.94
2022-10-01T17:20:13.885Z,99600.38
2022-10-01T17:22:43.156Z,99603.50
2022-10-01T17:25:22.011Z,99592.72
2022-10-01T17:27:49.322Z,99585.72
2022-10-01T17:30:16.870Z,99579.88
2022-10-01T17:32:44.921Z,99581.50
2022-10-01T17:35:13.303Z,99580.69
2022-10-01T17:37:41.510Z,99571.81
2022-10-01T17:40:10.506Z,99572.94
2022-10-01T17:42:37.263Z,99581.50
2022-10-01T17:45:06.930Z,99567.69
2022-10-01T17:47:34.131Z,99560.81
2022-10-01T17:50:01.280Z,99549.94
2022-10-01T17:52:28.044Z,99556.69
2022-10-01T17:54:54.846Z,99561.22
2022-10-01T17:57:21.584Z,99544.69
2022-10-01T17:59:48.242Z,99522.34
2022-10-01T18:02:39.616Z,99530.59
2022-10-01T18:05:03.998Z,99503.50
2022-10-01T18:07:30.736Z,99509.69
2022-10-01T18:09:57.581Z,99496.66
2022-10-01T18:12:24.368Z,99497.84
2022-10-01T18:14:51.115Z,99496.53
2022-10-01T18:17:18.123Z,99490.53
2022-10-01T18:19:53.689Z,99487.09
2022-10-01T18:22:21.334Z,99478.22
2022-10-01T18:24:48.180Z,99479.03
2022-10-01T18:27:15.031Z,99457.13
2022-10-01T18:29:41.821Z,99471.91
2022-10-01T18:32:27.239Z,99465.72
2022-10-01T18:35:13.545Z,99465.81
2022-10-01T18:37:49.928Z,99446.31
2022-10-01T18:40:29.073Z,99452.50
2022-10-01T18:43:08.480Z,99450.38
2022-10-01T18:45:53.285Z,99437.47
2022-10-01T18:48:50.939Z,99441.50
2022-10-01T18:51:27.203Z,99442.63
2022-10-01T18:54:21.716Z,99442.50
2022-10-01T18:56:54.452Z,99432.13
2022-10-01T18:59:50.588Z,99416.28
2022-10-01T19:02:52.272Z,99413.00
2022-10-01T19:05:49.922Z,99423.41
2022-10-01T19:08:24.891Z,99413.56
2022-10-01T19:11:03.571Z,99414.31
2022-10-01T19:13:47.818Z,99404.38
2022-10-01T19:16:17.409Z,99407.28
2022-10-01T19:18:56.843Z,99402.94
2022-10-01T19:21:36.121Z,99396.09
2022-10-01T19:24:37.261Z,99379.53
2022-10-01T19:27:26.402Z,99368.94
2022-10-01T19:30:12.453Z,99378.91
2022-10-01T19:32:45.977Z,99372.03
2022-10-01T19:35:19.194Z,99391.00
2022-10-01T19:37:55.231Z,99394.25
2022-10-01T19:40:33.919Z,99402.00
2022-10-01T19:43:29.873Z,99392.19
2022-10-01T19:46:04.840Z,99383.72
2022-10-01T19:48:45.895Z,99380.03
2022-10-01T19:51:15.376Z,99370.44
2022-10-01T19:53:50.151Z,99370.16
2022-10-01T19:56:24.262Z,99379.09
2022-10-01T19:58:50.917Z,99374.19
2022-10-01T20:01:23.912Z,99368.53
2022-10-01T20:04:19.034Z,99356.88
2022-10-01T20:06:47.008Z,99348.09
2022-10-01T20:09:28.709Z,99334.16
2022-10-01T20:12:09.525Z,99323.56
2022-10-01T20:15:00.689Z,99310.75
2022-10-01T20:17:47.910Z,99302.78
2022-10-01T20:20:21.177Z,99294.84
2022-10-01T20:22:57.900Z,99295.56
2022-10-01T20:25:43.157Z,99286.25
2022-10-01T20:28:31.026Z,99281.97
2022-10-01T20:31:07.619Z,99285.25
2022-10-01T20:34:00.205Z,99283.09
2022-10-01T20:37:09.467Z,99275.53
2022-10-01T20:39:42.004Z,99275.31
2022-10-01T20:42:19.762Z,99274.09
2022-10-01T20:44:47.292Z,99274.56
2022-10-01T20:47:23.825Z,99269.31
2022-10-01T20:50:21.411Z,99277.97
2022-10-01T20:53:25.434Z,99267.63
2022-10-01T20:55:59.319Z,99264.16
2022-10-01T20:58:43.735Z,99248.13
2022-10-01T21:01:20.633Z,99249.88
2022-10-01T21:03:53.910Z,99254.28
2022-10-01T21:06:26.703Z,99249.09
2022-10-01T21:09:03.354Z,99260.47
2022-10-01T21:11:41.621Z,99255.09
2022-10-01T21:14:29.121Z,99267.16
2022-10-01T21:17:05.277Z,99264.91
2022-10-01T21:19:50.106Z,99235.59
2022-10-01T21:22:53.882Z,99246.91
2022-10-01T21:25:20.638Z,99230.13
2022-10-01T21:27:53.470Z,99216.44
2022-10-01T21:30:21.698Z,99196.41
2022-10-01T21:33:06.911Z,99218.09
2022-10-01T21:35:50.706Z,99215.19
2022-10-01T21:38:39.225Z,99225.84
2022-10-01T21:41:27.579Z,99213.69
2022-10-01T21:44:25.062Z,99202.22
2022-10-01T21:47:16.347Z,99205.13
2022-10-01T21:50:01.199Z,99210.34
2022-10-01T21:53:06.867Z,99215.63
2022-10-01T21:55:33.513Z,99215.53
2022-10-01T21:58:11.779Z,99213.66
2022-10-01T22:00:38.490Z,99190.22
2022-10-01T22:03:11.216Z,99195.53
2022-10-01T22:05:57.249Z,99170.25
2022-10-01T22:08:34.585Z,99191.19
2022-10-01T22:11:07.596Z,99188.59
2022-10-01T22:13:38.546Z,99175.78
2022-10-01T22:16:13.982Z,99166.28
2022-10-01T22:18:46.140Z,99165.50
2022-10-01T22:24:20.288Z,99149.63
2022-10-01T22:26:57.820Z,99150.69
2022-10-01T22:29:29.212Z,99139.00
2022-10-01T22:32:03.165Z,99124.25
2022-10-01T22:34:37.866Z,99119.44
2022-10-01T22:37:18.909Z,99100.53
2022-10-01T22:40:01.164Z,99085.41
2022-10-01T22:42:35.519Z,99075.25
2022-10-01T22:45:12.541Z,99072.38
2022-10-01T22:47:42.187Z,99064.31
2022-10-01T22:50:28.343Z,99053.16
2022-10-01T22:53:24.341Z,99058.53
2022-10-01T22:55:56.084Z,99062.44
2022-10-01T22:58:35.256Z,99073.78
2022-10-01T23:01:05.022Z,99093.41
2022-10-01T23:04:09.767Z,99113.16
2022-10-01T23:06:42.405Z,99126.78
2022-10-01T23:09:08.972Z,99133.72
2022-10-01T23:12:01.831Z,99140.78
2022-10-01T23:14:31.263Z,99130.16
2022-10-01T23:17:09.000Z,99123.63
2022-10-01T23:19:47.734Z,99111.94
2022-10-01T23:22:20.511Z,99102.34
2022-10-01T23:25:11.497Z,99084.06
2022-10-01T23:27:56.202Z,99071.38
2022-10-01T23:30:22.989Z,99071.56
2022-10-01T23:33:10.978Z,99061.28
2022-10-01T23:35:57.452Z,99053.22
2022-10-01T23:38:40.663Z,99063.66
2022-10-01T23:41:36.448Z,99055.66
2022-10-01T23:44:14.475Z,99061.81
2022-10-01T23:46:44.909Z,99074.66
2022-10-01T23:49:15.590Z,99091.50
2022-10-01T23:51:55.841Z,99094.25
2022-10-01T23:54:35.486Z,99087.22
2022-10-01T23:57:14.368Z,99098.59
2022-10-01T23:59:46.246Z,99116.59
